sensor_id;sensor_type;location;lat;lon;timestamp;pressure;altitude;pressure_sealevel;temperature;humidity
72465;BME280;60471;52.150;4.508;2024-01-15T14:24:04;100131.25;;;8.05;73.89
72465;BME280;60471;52.150;4.508;2024-01-15T14:26:30;100136.22;;;6.98;90.38
72465;BME280;60471;52.150;4.508;2024-01-15T14:28:56;100134.34;;;7.21;88.48
72465;BME280;60471;52.150;4.508;2024-01-15T14:31:22;100141.53;;;6.97;92.55
72465;BME280;60471;52.150;4.508;2024-01-15T14:33:50;100146.56;;;7.02;96.48
72465;BME280;60471;52.150;4.508;2024-01-15T14:36:16;100152.81;;;7.38;100.00
72465;BME280;60471;52.150;4.508;2024-01-15T14:38:42;100161.56;;;7.37;100.00
72465;BME280;60471;52.150;4.508;2024-01-15T14:41:08;100152.09;;;8.08;100.00
72465;BME280;60471;52.150;4.508;2024-01-15T14:43:34;100165.84;;;7.77;100.00
72465;BME280;60471;52.150;4.508;2024-01-15T14:46:00;100170.81;;;7.46;100.00
72465;BME280;60471;52.150;4.508;2024-01-15T14:48:26;100171.91;;;7.61;100.00
72465;BME280;60471;52.150;4.508;2024-01-15T14:50:52;100164.75;;;7.06;100.00
72465;BME280;60471;52.150;4.508;2024-01-15T14:53:18;100169.56;;;7.15;100.00
72465;BME280;60471;52.150;4.508;2024-01-15T14:55:44;100176.88;;;6.68;100.00
72465;BME280;60471;52.150;4.508;2024-01-15T14:58:10;100174.00;;;6.12;100.00
72465;BME280;60471;52.150;4.508;2024-01-15T15:00:36;100174.13;;;6.08;100.00
72465;BME280;60471;52.150;4.508;2024-01-15T15:03:02;100203.50;;;5.93;100.00
72465;BME280;60471;52.150;4.508;2024-01-15T15:05:29;100200.34;;;5.38;100.00
72465;BME280;60471;52.150;4.508;2024-01-15T15:07:55;100208.25;;;5.37;100.00
72465;BME280;60471;52.150;4.508;2024-01-15T15:10:21;100211.75;;;5.82;100.00
72465;BME280;60471;52.150;4.508;2024-01-15T15:12:47;100206.13;;;5.70;100.00
72465;BME280;60471;52.150;4.508;2024-01-15T15:15:13;100195.09;;;6.71;100.00
72465;BME280;60471;52.150;4.508;2024-01-15T15:17:40;100208.44;;;6.87;100.00
72465;BME280;60471;52.150;4.508;2024-01-15T15:20:06;100204.44;;;6.36;100.00
72465;BME280;60471;52.150;4.508;2024-01-15T15:22:33;100205.78;;;5.79;100.00
72465;BME280;60471;52.150;4.508;2024-01-15T15:24:59;100214.53;;;5.56;100.00
72465;BME280;60471;52.150;4.508;2024-01-15T15:27:25;100221.06;;;5.68;100.00
72465;BME280;60471;52.150;4.508;2024-01-15T15:29:53;100222.06;;;5.64;100.00
72465;BME280;60471;52.150;4.508;2024-01-15T15:32:19;100230.53;;;5.23;100.00
72465;BME280;60471;52.150;4.508;2024-01-15T15:34:45;100223.69;;;5.44;100.00
72465;BME280;60471;52.150;4.508;2024-01-15T15:37:11;100225.66;;;5.38;100.00
72465;BME280;60471;52.150;4.508;2024-01-15T15:39:37;100229.56;;;5.49;100.00
72465;BME280;60471;52.150;4.508;2024-01-15T15:42:04;100228.00;;;5.20;100.00
72465;BME280;60471;52.150;4.508;2024-01-15T15:44:30;100240.16;;;5.23;100.00
72465;BME280;60471;52.150;4.508;2024-01-15T15:46:56;100238.25;;;5.27;100.00
72465;BME280;60471;52.150;4.508;2024-01-15T15:49:22;100246.50;;;4.91;100.00
72465;BME280;60471;52.150;4.508;2024-01-15T15:51:48;100241.88;;;4.98;100.00
72465;BME280;60471;52.150;4.508;2024-01-15T15:54:14;100240.72;;;4.81;100.00
72465;BME280;60471;52.150;4.508;2024-01-15T15:56:40;100242.84;;;4.95;100.00
72465;BME280;60471;52.150;4.508;2024-01-15T15:59:08;100248.88;;;4.97;100.00
72465;BME280;60471;52.150;4.508;2024-01-15T16:01:35;100254.97;;;4.98;100.00
72465;BME280;60471;52.150;4.508;2024-01-15T16:04:01;100250.19;;;5.10;100.00
72465;BME280;60471;52.150;4.508;2024-01-15T16:06:29;100251.78;;;4.89;100.00
72465;BME280;60471;52.150;4.508;2024-01-15T16:08:55;100252.69;;;4.88;100.00
72465;BME280;60471;52.150;4.508;2024-01-15T16:11:21;100257.03;;;4.88;100.00
72465;BME280;60471;52.150;4.508;2024-01-15T16:13:47;100269.72;;;5.00;100.00
72465;BME280;60471;52.150;4.508;2024-01-15T16:16:13;100260.31;;;4.94;100.00
72465;BME280;60471;52.150;4.508;2024-01-15T16:18:39;100263.09;;;4.90;100.00
72465;BME280;60471;52.150;4.508;2024-01-15T16:21:05;100267.94;;;5.01;100.00
72465;BME280;60471;52.150;4.508;2024-01-15T16:23:31;100271.31;;;5.04;100.00
72465;BME280;60471;52.150;4.508;2024-01-15T16:25:57;100278.28;;;5.04;100.00
72465;BME280;60471;52.150;4.508;2024-01-15T16:28:23;100272.63;;;5.16;100.00
72465;BME280;60471;52.150;4.508;2024-01-15T16:30:49;100282.84;;;5.23;100.00
72465;BME280;60471;52.150;4.508;2024-01-15T16:33:15;100297.13;;;5.38;100.00
72465;BME280;60471;52.150;4.508;2024-01-15T16:35:41;100293.31;;;5.23;100.00
72465;BME280;60471;52.150;4.508;2024-01-15T16:38:07;100301.56;;;5.11;100.00
72465;BME280;60471;52.150;4.508;2024-01-15T16:40:33;100307.88;;;4.79;100.00
72465;BME280;60471;52.150;4.508;2024-01-15T16:42:59;100304.59;;;4.73;100.00
72465;BME280;60471;52.150;4.508;2024-01-15T16:45:25;100318.72;;;4.67;100.00
72465;BME280;60471;52.150;4.508;2024-01-15T16:47:51;100332.25;;;4.52;100.00
72465;BME280;60471;52.150;4.508;2024-01-15T16:50:17;100343.47;;;4.27;100.00
72465;BME280;60471;52.150;4.508;2024-01-15T16:52:44;100350.03;;;4.11;100.00
72465;BME280;60471;52.150;4.508;2024-01-15T16:55:10;100349.72;;;3.92;100.00
72465;BME280;60471;52.150;4.508;2024-01-15T16:57:36;100363.78;;;3.87;100.00
72465;BME280;60471;52.150;4.508;2024-01-15T17:00:02;100361.63;;;3.71;100.00
72465;BME280;60471;52.150;4.508;2024-01-15T17:02:28;100337.72;;;3.85;100.00
72465;BME280;60471;52.150;4.508;2024-01-15T17:04:54;100347.34;;;4.14;100.00
72465;BME280;60471;52.150;4.508;2024-01-15T17:07:20;100340.28;;;4.18;100.00
72465;BME280;60471;52.150;4.508;2024-01-15T17:09:46;100337.03;;;4.10;100.00
72465;BME280;60471;52.150;4.508;2024-01-15T17:12:12;100330.50;;;4.24;100.00
72465;BME280;60471;52.150;4.508;2024-01-15T17:14:38;100332.25;;;4.24;100.00
72465;BME280;60471;52.150;4.508;2024-01-15T17:17:04;100337.19;;;4.33;100.00
72465;BME280;60471;52.150;4.508;2024-01-15T17:19:30;100339.63;;;4.39;100.00
72465;BME280;60471;52.150;4.508;2024-01-15T17:21:56;100339.94;;;4.28;100.00
72465;BME280;60471;52.150;4.508;2024-01-15T17:24:22;100338.44;;;4.49;100.00
72465;BME280;60471;52.150;4.508;2024-01-15T17:26:48;100345.00;;;4.62;100.00
72465;BME280;60471;52.150;4.508;2024-01-15T17:29:15;100342.09;;;4.72;100.00
72465;BME280;60471;52.150;4.508;2024-01-15T17:31:42;100336.00;;;4.71;100.00
72465;BME280;60471;52.150;4.508;2024-01-15T17:34:08;100363.69;;;4.77;100.00
72465;BME280;60471;52.150;4.508;2024-01-15T17:36:35;100353.50;;;4.69;100.00
72465;BME280;60471;52.150;4.508;2024-01-15T17:39:01;100367.94;;;4.81;100.00
72465;BME280;60471;52.150;4.508;2024-01-15T17:41:28;100372.09;;;4.86;100.00
72465;BME280;60471;52.150;4.508;2024-01-15T17:43:54;100407.69;;;4.62;100.00
72465;BME280;60471;52.150;4.508;2024-01-15T17:46:20;100419.47;;;4.48;100.00
72465;BME280;60471;52.150;4.508;2024-01-15T17:48:47;100426.03;;;4.31;100.00
72465;BME280;60471;52.150;4.508;2024-01-15T17:51:17;100426.28;;;4.24;100.00
72465;BME280;60471;52.150;4.508;2024-01-15T17:53:44;100403.63;;;4.23;100.00
72465;BME280;60471;52.150;4.508;2024-01-15T17:56:14;100419.63;;;4.12;100.00
72465;BME280;60471;52.150;4.508;2024-01-15T17:58:41;100400.66;;;4.36;100.00
72465;BME280;60471;52.150;4.508;2024-01-15T18:01:08;100412.03;;;4.34;100.00
72465;BME280;60471;52.150;4.508;2024-01-15T18:03:36;100403.06;;;4.43;100.00
72465;BME280;60471;52.150;4.508;2024-01-15T18:06:05;100407.38;;;4.44;100.00
72465;BME280;60471;52.150;4.508;2024-01-15T18:08:32;100407.28;;;4.48;100.00
72465;BME280;60471;52.150;4.508;2024-01-15T18:10:58;100411.31;;;4.58;100.00
72465;BME280;60471;52.150;4.508;2024-01-15T18:13:25;100406.47;;;4.74;100.00
72465;BME280;60471;52.150;4.508;2024-01-15T18:15:57;100408.97;;;4.77;100.00
72465;BME280;60471;52.150;4.508;2024-01-15T18:18:23;100416.59;;;4.85;100.00
72465;BME280;60471;52.150;4.508;2024-01-15T18:20:51;100405.06;;;4.92;100.00
72465;BME280;60471;52.150;4.508;2024-01-15T18:23:17;100410.00;;;5.01;100.00
72465;BME280;60471;52.150;4.508;2024-01-15T18:25:43;100410.06;;;4.98;100.00
72465;BME280;60471;52.150;4.508;2024-01-15T18:28:09;100402.16;;;4.73;100.00
72465;BME280;60471;52.150;4.508;2024-01-15T18:30:35;100416.63;;;4.55;100.00
72465;BME280;60471;52.150;4.508;2024-01-15T18:33:01;100425.28;;;4.57;100.00
72465;BME280;60471;52.150;4.508;2024-01-15T18:35:28;100423.81;;;4.49;100.00
72465;BME280;60471;52.150;4.508;2024-01-15T18:37:54;100429.28;;;4.40;100.00
72465;BME280;60471;52.150;4.508;2024-01-15T18:40:20;100425.09;;;4.34;100.00
72465;BME280;60471;52.150;4.508;2024-01-15T18:42:46;100436.47;;;4.31;100.00
72465;BME280;60471;52.150;4.508;2024-01-15T18:45:13;100432.31;;;4.26;100.00
72465;BME280;60471;52.150;4.508;2024-01-15T18:47:39;100428.34;;;4.42;100.00
72465;BME280;60471;52.150;4.508;2024-01-15T18:50:05;100427.06;;;4.57;100.00
72465;BME280;60471;52.150;4.508;2024-01-15T18:52:32;100439.28;;;4.55;100.00
72465;BME280;60471;52.150;4.508;2024-01-15T18:54:58;100442.31;;;4.71;100.00
72465;BME280;60471;52.150;4.508;2024-01-15T18:57:24;100435.09;;;4.79;100.00
72465;BME280;60471;52.150;4.508;2024-01-15T18:59:50;100451.78;;;4.45;100.00
72465;BME280;60471;52.150;4.508;2024-01-15T19:02:16;100434.97;;;4.24;100.00
72465;BME280;60471;52.150;4.508;2024-01-15T19:04:42;100452.50;;;4.19;100.00
72465;BME280;60471;52.150;4.508;2024-01-15T19:07:09;100460.53;;;4.12;100.00
72465;BME280;60471;52.150;4.508;2024-01-15T19:09:35;100453.56;;;4.12;100.00
72465;BME280;60471;52.150;4.508;2024-01-15T19:12:01;100458.78;;;4.12;100.00
72465;BME280;60471;52.150;4.508;2024-01-15T19:14:27;100461.50;;;4.40;100.00
72465;BME280;60471;52.150;4.508;2024-01-15T19:16:53;100455.34;;;4.41;100.00
72465;BME280;60471;52.150;4.508;2024-01-15T19:19:19;100453.94;;;4.60;100.00
72465;BME280;60471;52.150;4.508;2024-01-15T19:21:45;100452.94;;;4.64;100.00
72465;BME280;60471;52.150;4.508;2024-01-15T19:24:11;100459.59;;;4.75;100.00
72465;BME280;60471;52.150;4.508;2024-01-15T19:26:37;100457.25;;;4.65;100.00
72465;BME280;60471;52.150;4.508;2024-01-15T19:29:03;100464.47;;;4.57;100.00
72465;BME280;60471;52.150;4.508;2024-01-15T19:31:34;100466.78;;;4.66;100.00
72465;BME280;60471;52.150;4.508;2024-01-15T19:34:02;100464.38;;;4.60;100.00
72465;BME280;60471;52.150;4.508;2024-01-15T19:36:28;100476.75;;;4.54;100.00
72465;BME280;60471;52.150;4.508;2024-01-15T19:38:54;100464.22;;;4.65;100.00
72465;BME280;60471;52.150;4.508;2024-01-15T19:41:20;100482.16;;;4.77;100.00
72465;BME280;60471;52.150;4.508;2024-01-15T19:43:46;100472.28;;;4.87;100.00
72465;BME280;60471;52.150;4.508;2024-01-15T19:46:12;100484.59;;;4.83;100.00
72465;BME280;60471;52.150;4.508;2024-01-15T19:48:39;100482.28;;;5.02;100.00
72465;BME280;60471;52.150;4.508;2024-01-15T19:51:05;100515.25;;;4.78;100.00
72465;BME280;60471;52.150;4.508;2024-01-15T19:53:31;100518.44;;;4.27;100.00
72465;BME280;60471;52.150;4.508;2024-01-15T19:55:57;100523.91;;;4.18;100.00
72465;BME280;60471;52.150;4.508;2024-01-15T19:58:23;100522.56;;;4.03;100.00
72465;BME280;60471;52.150;4.508;2024-01-15T20:00:50;100527.31;;;3.88;100.00
72465;BME280;60471;52.150;4.508;2024-01-15T20:03:16;100527.88;;;3.99;100.00
72465;BME280;60471;52.150;4.508;2024-01-15T20:05:42;100529.69;;;3.97;100.00
72465;BME280;60471;52.150;4.508;2024-01-15T20:08:08;100541.28;;;3.85;100.00
72465;BME280;60471;52.150;4.508;2024-01-15T20:10:33;100545.47;;;3.92;100.00
72465;BME280;60471;52.150;4.508;2024-01-15T20:13:00;100558.75;;;3.83;100.00
72465;BME280;60471;52.150;4.508;2024-01-15T20:15:26;100560.81;;;3.69;100.00
72465;BME280;60471;52.150;4.508;2024-01-15T20:17:54;100560.00;;;3.67;100.00
72465;BME280;60471;52.150;4.508;2024-01-15T20:20:20;100576.22;;;3.79;100.00
72465;BME280;60471;52.150;4.508;2024-01-15T20:22:46;100562.91;;;3.90;100.00
72465;BME280;60471;52.150;4.508;2024-01-15T20:25:12;100537.03;;;3.83;100.00
72465;BME280;60471;52.150;4.508;2024-01-15T20:27:38;100533.25;;;3.94;100.00
72465;BME280;60471;52.150;4.508;2024-01-15T20:30:04;100540.09;;;3.98;100.00
72465;BME280;60471;52.150;4.508;2024-01-15T20:32:31;100548.91;;;3.94;100.00
72465;BME280;60471;52.150;4.508;2024-01-15T20:34:59;100542.81;;;3.94;100.00
72465;BME280;60471;52.150;4.508;2024-01-15T20:37:25;100540.31;;;3.89;100.00
72465;BME280;60471;52.150;4.508;2024-01-15T20:39:52;100545.78;;;3.80;100.00
72465;BME280;60471;52.150;4.508;2024-01-15T20:42:18;100539.72;;;3.78;100.00
72465;BME280;60471;52.150;4.508;2024-01-15T20:44:44;100539.94;;;3.70;100.00
72465;BME280;60471;52.150;4.508;2024-01-15T20:47:10;100540.75;;;3.72;100.00
72465;BME280;60471;52.150;4.508;2024-01-15T20:49:38;100539.81;;;3.75;100.00
72465;BME280;60471;52.150;4.508;2024-01-15T20:52:04;100540.13;;;3.63;100.00
72465;BME280;60471;52.150;4.508;2024-01-15T20:54:31;100544.25;;;3.71;100.00
72465;BME280;60471;52.150;4.508;2024-01-15T20:56:57;100555.31;;;3.81;100.00
72465;BME280;60471;52.150;4.508;2024-01-15T20:59:27;100568.97;;;3.92;100.00
72465;BME280;60471;52.150;4.508;2024-01-15T21:01:53;100572.63;;;3.85;100.00
72465;BME280;60471;52.150;4.508;2024-01-15T21:04:19;100568.13;;;3.90;100.00
72465;BME280;60471;52.150;4.508;2024-01-15T21:06:45;100574.19;;;3.92;100.00
72465;BME280;60471;52.150;4.508;2024-01-15T21:09:11;100558.25;;;4.03;100.00
72465;BME280;60471;52.150;4.508;2024-01-15T21:11:37;100550.66;;;3.94;100.00
72465;BME280;60471;52.150;4.508;2024-01-15T21:14:03;100553.03;;;3.67;100.00
72465;BME280;60471;52.150;4.508;2024-01-15T21:16:29;100547.41;;;3.48;100.00
72465;BME280;60471;52.150;4.508;2024-01-15T21:18:55;100539.59;;;3.48;100.00
72465;BME280;60471;52.150;4.508;2024-01-15T21:21:21;100556.91;;;3.51;100.00
72465;BME280;60471;52.150;4.508;2024-01-15T21:23:48;100554.22;;;3.54;100.00
72465;BME280;60471;52.150;4.508;2024-01-15T21:26:14;100555.88;;;3.58;100.00
72465;BME280;60471;52.150;4.508;2024-01-15T21:28:40;100553.88;;;3.69;100.00
72465;BME280;60471;52.150;4.508;2024-01-15T21:31:06;100565.69;;;3.84;100.00
72465;BME280;60471;52.150;4.508;2024-01-15T21:33:32;100565.19;;;4.04;100.00
72465;BME280;60471;52.150;4.508;2024-01-15T21:36:03;100569.91;;;4.22;100.00
72465;BME280;60471;52.150;4.508;2024-01-15T21:38:30;100573.97;;;4.34;100.00
72465;BME280;60471;52.150;4.508;2024-01-15T21:40:56;100576.94;;;4.20;100.00
72465;BME280;60471;52.150;4.508;2024-01-15T21:43:22;100583.16;;;4.16;100.00
72465;BME280;60471;52.150;4.508;2024-01-15T21:45:48;100574.38;;;3.85;100.00
72465;BME280;60471;52.150;4.508;2024-01-15T21:48:14;100594.59;;;3.75;100.00
72465;BME280;60471;52.150;4.508;2024-01-15T21:50:40;100583.69;;;3.59;100.00
72465;BME280;60471;52.150;4.508;2024-01-15T21:53:06;100574.50;;;3.80;100.00
72465;BME280;60471;52.150;4.508;2024-01-15T21:55:33;100569.97;;;3.87;100.00
72465;BME280;60471;52.150;4.508;2024-01-15T21:57:59;100574.03;;;3.98;100.00
72465;BME280;60471;52.150;4.508;2024-01-15T22:00:25;100564.28;;;4.05;100.00
72465;BME280;60471;52.150;4.508;2024-01-15T22:02:51;100570.94;;;4.17;100.00
72465;BME280;60471;52.150;4.508;2024-01-15T22:05:17;100575.50;;;4.08;100.00
72465;BME280;60471;52.150;4.508;2024-01-15T22:07:43;100580.50;;;4.18;100.00
72465;BME280;60471;52.150;4.508;2024-01-15T22:10:10;100586.56;;;4.18;100.00
72465;BME280;60471;52.150;4.508;2024-01-15T22:12:36;100585.47;;;4.27;100.00
72465;BME280;60471;52.150;4.508;2024-01-15T22:15:02;100597.69;;;4.26;100.00
72465;BME280;60471;52.150;4.508;2024-01-15T22:17:29;100616.53;;;4.03;100.00
72465;BME280;60471;52.150;4.508;2024-01-15T22:19:56;100584.63;;;3.92;100.00
72465;BME280;60471;52.150;4.508;2024-01-15T22:22:23;100584.06;;;4.15;100.00
72465;BME280;60471;52.150;4.508;2024-01-15T22:24:49;100593.59;;;4.16;100.00
72465;BME280;60471;52.150;4.508;2024-01-15T22:27:15;100587.25;;;4.26;100.00
72465;BME280;60471;52.150;4.508;2024-01-15T22:29:41;100589.19;;;4.18;100.00
72465;BME280;60471;52.150;4.508;2024-01-15T22:32:07;100594.44;;;4.17;100.00
72465;BME280;60471;52.150;4.508;2024-01-15T22:34:33;100587.47;;;4.17;100.00
72465;BME280;60471;52.150;4.508;2024-01-15T22:36:59;100591.94;;;4.14;100.00
72465;BME280;60471;52.150;4.508;2024-01-15T22:39:27;100588.19;;;4.22;100.00
72465;BME280;60471;52.150;4.508;2024-01-15T22:41:53;100596.59;;;4.33;100.00
72465;BME280;60471;52.150;4.508;2024-01-15T22:44:19;100597.56;;;4.31;100.00
72465;BME280;60471;52.150;4.508;2024-01-15T22:46:45;100596.84;;;4.26;100.00
72465;BME280;60471;52.150;4.508;2024-01-15T22:49:11;100599.53;;;4.21;100.00
72465;BME280;60471;52.150;4.508;2024-01-15T22:51:38;100598.53;;;4.27;100.00
72465;BME280;60471;52.150;4.508;2024-01-15T22:54:04;100599.31;;;4.30;100.00
72465;BME280;60471;52.150;4.508;2024-01-15T22:56:30;100603.84;;;4.24;100.00
72465;BME280;60471;52.150;4.508;2024-01-15T22:58:56;100607.34;;;4.23;100.00
72465;BME280;60471;52.150;4.508;2024-01-15T23:01:22;100616.41;;;4.42;100.00
72465;BME280;60471;52.150;4.508;2024-01-15T23:03:48;100617.66;;;4.61;100.00
72465;BME280;60471;52.150;4.508;2024-01-15T23:06:20;100625.50;;;4.61;100.00
72465;BME280;60471;52.150;4.508;2024-01-15T23:08:47;100618.38;;;4.66;100.00
72465;BME280;60471;52.150;4.508;2024-01-15T23:11:14;100611.69;;;4.87;100.00
72465;BME280;60471;52.150;4.508;2024-01-15T23:13:43;100613.19;;;4.96;100.00
72465;BME280;60471;52.150;4.508;2024-01-15T23:16:10;100611.53;;;4.93;100.00
72465;BME280;60471;52.150;4.508;2024-01-15T23:18:42;100616.66;;;4.65;100.00
72465;BME280;60471;52.150;4.508;2024-01-15T23:21:08;100632.47;;;4.61;100.00
72465;BME280;60471;52.150;4.508;2024-01-15T23:23:35;100623.53;;;4.37;100.00
72465;BME280;60471;52.150;4.508;2024-01-15T23:26:01;100629.09;;;4.57;100.00
72465;BME280;60471;52.150;4.508;2024-01-15T23:28:28;100627.63;;;4.47;100.00
72465;BME280;60471;52.150;4.508;2024-01-15T23:30:54;100629.06;;;4.25;100.00
72465;BME280;60471;52.150;4.508;2024-01-15T23:33:20;100633.44;;;4.24;100.00
72465;BME280;60471;52.150;4.508;2024-01-15T23:35:46;100634.03;;;4.34;100.00
72465;BME280;60471;52.150;4.508;2024-01-15T23:38:12;100631.50;;;4.31;100.00
72465;BME280;60471;52.150;4.508;2024-01-15T23:40:38;100634.97;;;4.31;100.00
72465;BME280;60471;52.150;4.508;2024-01-15T23:43:04;100636.53;;;4.39;100.00
72465;BME280;60471;52.150;4.508;2024-01-15T23:45:30;100638.22;;;4.41;100.00
72465;BME280;60471;52.150;4.508;2024-01-15T23:47:57;100642.75;;;4.34;100.00
72465;BME280;60471;52.150;4.508;2024-01-15T23:50:23;100648.66;;;4.41;100.00
72465;BME280;60471;52.150;4.508;2024-01-15T23:52:49;100648.75;;;4.38;100.00
72465;BME280;60471;52.150;4.508;2024-01-15T23:55:15;100651.22;;;4.43;100.00
72465;BME280;60471;52.150;4.508;2024-01-15T23:57:41;100652.94;;;4.44;100.00
